KSEP/SEP METAR and TAF weather

Enter ICAO airport designator
Station Type Date Time Source
KSEP METAR 2019/10/21 02:35 UTC NOAA

KSEP 210235Z AUTO 19010G16KT 10SM CLR 27/18 A2966 RMK AO2 T02700182


Station Type Date Time Source
KSEP Decoded METAR 2019/10/21 02:35 UTC NOAA

Stephenville, Clark Field Municipal Airport, TX, United States (KSEP) 32-13N 098-11W 402M
Oct 20, 2019 - 10:35 PM EDT / 2019.10.21 0235 UTC
Wind: from the S (190 degrees) at 12 MPH (10 KT) gusting to 18 MPH (16 KT):0
Visibility: 10 mile(s):0
Sky conditions: clear
Temperature: 80.6 F (27.0 C)
Dew Point: 64.8 F (18.2 C)
Relative Humidity: 58%
Pressure (altimeter): 29.66 in. Hg (1004 hPa)
ob: KSEP 210235Z AUTO 19010G16KT 10SM CLR 27/18 A2966 RMK AO2 T02700182
cycle: 2

Station Type Date Time Source
KSEP TAF UTC NOAA

Error!

Example: see airport list